Time;durP1;ratioP1;P1;durP2;ratioP2;P2;SDS_P1;SDS_P2;PMS_P1;PMS_P2;Temp;Humidity;BMP_temperature;BMP_pressure;BME280_temperature;BME280_humidity;BME280_pressure;Samples;Min_cycle;Max_cycle;Signal;HPM_P1;HPM_P2
2023/06/10 00:00:36;;;;;;;10.07;7.70;;;;;;;24.38;43.67;101269.56;5071375;28;20862;-64
2023/06/10 00:03:01;;;;;;;8.05;7.30;;;;;;;24.31;44.50;101272.91;5066787;28;20115;-64
2023/06/10 00:05:29;;;;;;;8.90;8.02;;;;;;;24.37;43.54;101270.75;5072219;28;20499;-65
2023/06/10 00:07:55;;;;;;;8.98;8.18;;;;;;;24.29;44.26;101263.91;5071939;28;20103;-64
2023/06/10 00:10:21;;;;;;;9.95;8.30;;;;;;;24.27;44.38;101268.25;5069828;28;20032;-65
2023/06/10 00:12:47;;;;;;;10.05;8.23;;;;;;;24.23;44.22;101271.75;5063356;28;20059;-65
2023/06/10 00:15:12;;;;;;;10.80;7.75;;;;;;;24.25;44.59;101266.59;5066998;28;20039;-64
2023/06/10 00:17:38;;;;;;;9.43;8.38;;;;;;;24.20;45.44;101275.25;5052267;28;20028;-64
2023/06/10 00:20:10;;;;;;;8.10;7.20;;;;;;;24.11;45.23;101274.44;5070819;28;20146;-64
2023/06/10 00:22:36;;;;;;;;;;;;;;;24.34;43.82;101277.09;5052823;28;20070;-64
2023/06/10 00:25:03;;;;;;;11.63;8.25;;;;;;;24.12;45.74;101276.09;5051642;28;20015;-63
2023/06/10 00:27:34;;;;;;;8.75;7.85;;;;;;;24.16;44.95;101282.75;5070475;28;20103;-64
2023/06/10 00:30:00;;;;;;;9.70;7.80;;;;;;;24.05;44.97;101283.44;5069740;28;20039;-64
2023/06/10 00:32:25;;;;;;;9.05;8.10;;;;;;;23.99;45.63;101277.13;5071583;28;20388;-64
2023/06/10 00:34:51;;;;;;;11.07;7.93;;;;;;;23.96;46.01;101284.28;5066905;28;20066;-64
2023/06/10 00:37:16;;;;;;;10.00;8.00;;;;;;;23.90;45.78;101279.94;5065664;28;20085;-64
2023/06/10 00:39:41;;;;;;;9.15;7.88;;;;;;;23.85;46.14;101293.44;5069517;28;20395;-64
2023/06/10 00:42:07;;;;;;;8.75;7.65;;;;;;;23.79;46.11;101284.28;5069977;28;20055;-64
2023/06/10 00:44:32;;;;;;;8.70;7.78;;;;;;;23.77;46.50;101286.59;5070230;28;20028;-64
2023/06/10 00:46:58;;;;;;;9.50;8.60;;;;;;;23.74;46.70;101287.28;5071209;28;20107;-64
2023/06/10 00:49:23;;;;;;;11.55;8.45;;;;;;;23.77;45.79;101287.44;5055013;28;20033;-64
2023/06/10 00:51:50;;;;;;;9.43;8.57;;;;;;;23.68;46.16;101283.75;5067511;28;20511;-64
2023/06/10 00:54:16;;;;;;;9.52;7.85;;;;;;;23.66;45.56;101291.78;5069810;28;20024;-64
2023/06/10 00:56:42;;;;;;;9.35;8.45;;;;;;;23.60;46.45;101280.88;5071266;28;20134;-64
2023/06/10 00:59:08;;;;;;;10.40;7.95;;;;;;;23.57;46.10;101284.38;5069796;28;20038;-64
2023/06/10 01:01:34;;;;;;;10.00;7.90;;;;;;;23.54;46.30;101285.91;5070463;28;20468;-64
2023/06/10 01:03:59;;;;;;;9.05;8.20;;;;;;;23.48;46.40;101284.38;5070933;28;20021;-64
2023/06/10 01:06:38;;;;;;;9.15;8.25;;;;;;;23.53;46.18;101275.69;5069557;28;20028;-64
2023/06/10 01:09:23;;;;;;;10.23;8.10;;;;;;;23.44;46.55;101287.03;5067724;28;20717;-64
2023/06/10 01:11:56;;;;;;;9.43;8.40;;;;;;;23.37;46.67;101283.00;5066311;28;20039;-64
2023/06/10 01:14:22;;;;;;;9.35;8.13;;;;;;;23.35;46.99;101283.34;5067298;28;20049;-64
2023/06/10 01:16:48;;;;;;;9.55;8.50;;;;;;;23.37;46.67;101283.84;5070605;28;20032;-64
2023/06/10 01:19:14;;;;;;;12.90;9.80;;;;;;;23.25;46.95;101287.31;5067818;28;20025;-64
2023/06/10 01:21:40;;;;;;;10.82;9.73;;;;;;;23.22;46.63;101284.28;5066580;28;20133;-64
2023/06/10 01:24:08;;;;;;;10.80;9.70;;;;;;;23.19;46.77;101285.78;5069939;28;20772;-64
2023/06/10 01:26:34;;;;;;;11.27;9.70;;;;;;;23.13;47.03;101289.94;5069537;28;20033;-64
2023/06/10 01:29:11;;;;;;;12.15;10.35;;;;;;;23.25;46.44;101284.47;5062704;28;20033;-65
2023/06/10 01:31:50;;;;;;;10.30;9.30;;;;;;;23.26;45.97;101289.00;5057523;28;20491;-64
2023/06/10 01:34:17;;;;;;;11.20;10.02;;;;;;;23.22;46.17;101282.28;5069474;28;20074;-65
2023/06/10 01:36:47;;;;;;;11.65;10.55;;;;;;;23.20;46.19;101290.28;5064279;28;20027;-64
2023/06/10 01:39:16;;;;;;;12.45;10.35;;;;;;;23.09;46.66;101294.56;5069109;28;20111;-64
2023/06/10 01:41:41;;;;;;;11.65;10.45;;;;;;;23.03;47.05;101299.56;5049881;28;20044;-65
2023/06/10 01:44:06;;;;;;;11.85;10.60;;;;;;;23.04;46.62;101286.25;5069772;28;20115;-64
2023/06/10 01:46:31;;;;;;;11.65;9.95;;;;;;;23.07;46.07;101296.91;5064999;28;20147;-64
2023/06/10 01:48:57;;;;;;;13.07;10.18;;;;;;;22.97;46.49;101291.53;5049428;28;20388;-65
2023/06/10 01:51:22;;;;;;;11.35;10.20;;;;;;;22.98;45.89;101296.84;5065666;28;20024;-65
2023/06/10 01:53:47;;;;;;;11.57;10.13;;;;;;;22.98;45.91;101296.03;5060071;28;20110;-65
2023/06/10 01:56:19;;;;;;;11.43;10.23;;;;;;;22.99;45.71;101287.22;5069051;28;20023;-65
2023/06/10 01:58:45;;;;;;;13.35;10.00;;;;;;;22.92;45.90;101295.34;5069911;28;20032;-64
2023/06/10 02:01:10;;;;;;;12.48;9.35;;;;;;;22.92;46.15;101286.03;5069628;28;20380;-64
2023/06/10 02:03:36;;;;;;;12.55;9.95;;;;;;;22.94;45.82;101295.00;5052939;28;20029;-64
2023/06/10 02:06:01;;;;;;;10.77;9.48;;;;;;;22.93;45.88;101293.34;5050354;28;20067;-64
2023/06/10 02:08:27;;;;;;;12.65;9.48;;;;;;;22.91;45.46;101292.81;5055460;28;20586;-64
2023/06/10 02:10:53;;;;;;;11.20;9.85;;;;;;;22.80;45.96;101300.75;5065620;28;20048;-64
2023/06/10 02:13:18;;;;;;;10.30;9.30;;;;;;;22.81;45.82;101296.75;5068945;28;20040;-64
2023/06/10 02:15:43;;;;;;;11.02;9.73;;;;;;;22.79;45.91;101299.06;5069326;28;20820;-64
2023/06/10 02:18:10;;;;;;;10.45;9.43;;;;;;;22.77;46.28;101302.22;5063244;28;20037;-64
2023/06/10 02:20:35;;;;;;;10.68;9.60;;;;;;;22.74;46.17;101300.03;5049726;28;20674;-65
2023/06/10 02:23:00;;;;;;;12.93;10.63;;;;;;;22.70;46.20;101304.69;5053804;28;20032;-64
2023/06/10 02:25:26;;;;;;;12.18;11.07;;;;;;;22.68;46.42;101301.34;5070044;28;20064;-64
2023/06/10 02:27:51;;;;;;;12.15;10.32;;;;;;;22.68;46.22;101297.69;5057040;28;20049;-64
2023/06/10 02:30:16;;;;;;;11.75;10.55;;;;;;;22.64;46.67;101299.50;5055442;28;20472;-64
2023/06/10 02:32:41;;;;;;;11.25;10.25;;;;;;;22.60;47.04;101309.78;5067687;28;20112;-65
2023/06/10 02:35:07;;;;;;;11.88;10.30;;;;;;;22.50;47.59;101303.22;5057723;28;20669;-64
2023/06/10 02:37:32;;;;;;;11.45;10.27;;;;;;;22.45;47.80;101305.38;5068100;28;20077;-64
2023/06/10 02:39:57;;;;;;;12.73;11.35;;;;;;;22.41;47.72;101305.19;5067732;28;20028;-64
2023/06/10 02:42:23;;;;;;;14.15;10.38;;;;;;;22.39;48.04;101310.31;5076969;28;20048;-64
2023/06/10 02:44:48;;;;;;;12.57;11.40;;;;;;;22.34;47.64;101301.13;5087098;28;20020;-64
2023/06/10 02:47:13;;;;;;;12.82;11.13;;;;;;;22.38;47.52;101302.16;5079081;28;20068;-64
2023/06/10 02:49:38;;;;;;;13.02;11.80;;;;;;;22.40;47.46;101305.47;5060720;28;20082;-65
2023/06/10 02:52:04;;;;;;;13.88;11.68;;;;;;;22.28;47.66;101304.09;5048957;28;20035;-64
2023/06/10 02:54:29;;;;;;;13.00;11.68;;;;;;;22.33;47.80;101305.13;5067768;28;20032;-64
2023/06/10 02:56:55;;;;;;;15.32;11.25;;;;;;;22.24;48.18;101297.41;5083428;28;20036;-64
2023/06/10 02:59:21;;;;;;;13.25;11.43;;;;;;;22.26;48.42;101305.56;5078666;28;20103;-65
2023/06/10 03:01:46;;;;;;;13.10;11.65;;;;;;;22.22;48.30;101308.19;5066707;28;20119;-64
2023/06/10 03:04:13;;;;;;;12.95;11.65;;;;;;;22.15;48.52;101304.97;5071163;28;20029;-64
2023/06/10 03:06:40;;;;;;;12.75;11.50;;;;;;;22.12;48.46;101304.75;5072316;28;20035;-64
2023/06/10 03:09:07;;;;;;;13.43;11.80;;;;;;;22.05;48.80;101305.22;5084933;28;20032;-64
2023/06/10 03:11:33;;;;;;;12.35;11.18;;;;;;;22.12;48.51;101311.22;5072640;28;20039;-65
2023/06/10 03:13:58;;;;;;;13.70;12.07;;;;;;;22.14;48.38;101303.31;5070355;28;20041;-65
2023/06/10 03:16:25;;;;;;;14.20;12.70;;;;;;;22.03;48.68;101307.50;5083355;28;20624;-64
2023/06/10 03:18:50;;;;;;;13.85;11.85;;;;;;;22.11;48.80;101305.91;5074288;28;20040;-64
2023/06/10 03:21:16;;;;;;;13.27;12.07;;;;;;;22.00;48.87;101308.13;5065648;28;20025;-64
2023/06/10 03:23:41;;;;;;;13.52;12.23;;;;;;;21.99;49.31;101312.97;5073147;28;20059;-64
2023/06/10 03:26:07;;;;;;;13.98;11.85;;;;;;;21.93;49.33;101317.06;5069288;28;20021;-64
2023/06/10 03:28:32;;;;;;;13.73;11.65;;;;;;;21.89;49.61;101307.56;5072836;28;20024;-65
2023/06/10 03:30:58;;;;;;;15.85;11.75;;;;;;;21.89;49.56;101327.34;5081267;28;20525;-65
2023/06/10 03:33:23;;;;;;;13.75;12.45;;;;;;;21.86;49.71;101324.31;5072431;28;20025;-64
2023/06/10 03:35:48;;;;;;;14.20;12.63;;;;;;;21.84;49.66;101323.78;5061838;28;20036;-64
2023/06/10 03:38:14;;;;;;;13.45;12.10;;;;;;;21.84;50.23;101318.13;5069446;28;20086;-64
2023/06/10 03:40:40;;;;;;;14.60;12.38;;;;;;;21.87;49.52;101329.63;5068611;28;20028;-64
2023/06/10 03:43:05;;;;;;;13.80;12.50;;;;;;;21.77;50.02;101332.69;5072620;28;20059;-64
2023/06/10 03:45:33;;;;;;;14.15;12.85;;;;;;;21.81;49.89;101325.25;5077291;28;20027;-64
2023/06/10 03:48:00;;;;;;;14.23;12.90;;;;;;;21.80;49.87;101332.88;5078641;28;20376;-65
2023/06/10 03:50:26;;;;;;;14.50;13.10;;;;;;;21.86;49.70;101332.78;5070264;28;20017;-65
2023/06/10 03:52:51;;;;;;;14.57;13.07;;;;;;;21.87;49.65;101329.63;5071200;28;20028;-65
2023/06/10 03:55:17;;;;;;;15.23;13.23;;;;;;;21.84;49.68;101332.25;5071487;28;20109;-65
2023/06/10 03:57:43;;;;;;;14.80;13.38;;;;;;;21.81;49.87;101328.06;5067502;28;20111;-66
2023/06/10 04:00:12;;;;;;;15.15;13.55;;;;;;;21.83;49.90;101339.06;5089714;28;20020;-65
2023/06/10 04:02:45;;;;;;;15.93;13.55;;;;;;;21.77;50.04;101330.72;5072827;28;20071;-65
2023/06/10 04:05:11;;;;;;;15.00;13.43;;;;;;;21.73;50.11;101334.47;5067923;28;20029;-65
2023/06/10 04:07:38;;;;;;;14.68;13.15;;;;;;;21.74;50.31;101333.34;5070652;28;20029;-65
2023/06/10 04:10:04;;;;;;;15.75;14.15;;;;;;;21.77;50.08;101327.03;5058112;28;20028;-65
2023/06/10 04:12:30;;;;;;;14.73;12.90;;;;;;;21.76;50.24;101334.69;5070666;28;20681;-64
2023/06/10 04:14:55;;;;;;;15.30;13.80;;;;;;;21.70;50.41;101335.13;5070708;28;20036;-64
2023/06/10 04:17:20;;;;;;;14.23;12.82;;;;;;;21.74;50.30;101328.53;5059859;28;20170;-64
2023/06/10 04:19:46;;;;;;;14.90;13.40;;;;;;;21.73;50.29;101329.69;5063186;28;20028;-65
2023/06/10 04:22:11;;;;;;;15.75;14.00;;;;;;;21.73;50.22;101337.31;5071123;28;20074;-64
2023/06/10 04:24:36;;;;;;;14.55;12.88;;;;;;;21.73;50.26;101337.31;5065723;28;20024;-66
2023/06/10 04:27:03;;;;;;;14.40;12.93;;;;;;;21.68;50.46;101335.44;5067899;28;20478;-65
2023/06/10 04:29:28;;;;;;;14.40;12.90;;;;;;;21.69;50.20;101342.78;5070792;28;20370;-65
2023/06/10 04:31:53;;;;;;;14.65;13.07;;;;;;;21.68;50.26;101349.56;5081017;28;20122;-65
2023/06/10 04:34:18;;;;;;;16.25;13.32;;;;;;;21.67;50.17;101344.22;5081663;28;20024;-65
2023/06/10 04:36:44;;;;;;;13.77;12.48;;;;;;;21.65;50.21;101347.34;5071480;28;20032;-65
2023/06/10 04:39:09;;;;;;;15.10;13.18;;;;;;;21.68;50.42;101345.91;5068604;28;20043;-65
2023/06/10 04:41:34;;;;;;;15.88;12.95;;;;;;;21.63;50.42;101349.69;5066641;28;20063;-65
2023/06/10 04:43:59;;;;;;;16.17;12.32;;;;;;;21.66;50.45;101360.34;5070629;28;20036;-64
2023/06/10 04:46:25;;;;;;;13.50;12.20;;;;;;;21.66;50.47;101349.06;5071584;28;20040;-64
2023/06/10 04:48:50;;;;;;;15.23;13.60;;;;;;;21.59;50.70;101354.28;5058355;28;20036;-65
2023/06/10 04:51:16;;;;;;;13.98;12.68;;;;;;;21.60;50.40;101355.13;5062581;28;20075;-64
2023/06/10 04:53:42;;;;;;;14.20;12.52;;;;;;;21.63;50.61;101355.31;5065746;28;20032;-64
2023/06/10 04:56:07;;;;;;;14.10;12.80;;;;;;;21.61;50.51;101362.44;5064599;28;20063;-64
2023/06/10 04:58:33;;;;;;;14.48;13.10;;;;;;;21.56;50.86;101350.09;5059012;28;20059;-64
2023/06/10 05:00:58;;;;;;;15.98;13.25;;;;;;;21.62;50.54;101364.13;5064566;28;20074;-64
2023/06/10 05:03:23;;;;;;;14.35;12.88;;;;;;;21.62;50.70;101358.47;5065048;28;20035;-63
2023/06/10 05:05:49;;;;;;;14.23;12.73;;;;;;;21.60;50.65;101361.59;5066153;28;20491;-64
2023/06/10 05:08:14;;;;;;;16.33;12.98;;;;;;;21.55;50.73;101359.72;5063201;28;20020;-64
2023/06/10 05:10:39;;;;;;;14.25;12.85;;;;;;;21.57;50.85;101362.22;5077206;28;20039;-65
2023/06/10 05:13:04;;;;;;;13.90;12.60;;;;;;;21.66;50.41;101366.00;5068895;28;20109;-65
2023/06/10 05:15:30;;;;;;;15.63;13.02;;;;;;;21.62;50.67;101353.66;5053093;28;20024;-64
2023/06/10 05:17:57;;;;;;;14.05;12.65;;;;;;;21.61;50.64;101363.25;5058126;28;20059;-65
2023/06/10 05:20:22;;;;;;;13.90;12.55;;;;;;;21.64;50.56;101362.63;5061046;28;20025;-66
2023/06/10 05:22:47;;;;;;;15.75;13.10;;;;;;;21.64;50.43;101362.63;5060571;28;20101;-66
2023/06/10 05:25:13;;;;;;;13.50;12.15;;;;;;;21.65;50.37;101358.66;5074191;28;20468;-66
2023/06/10 05:27:40;;;;;;;14.07;12.63;;;;;;;21.71;50.38;101359.41;5051769;28;20060;-65
2023/06/10 05:30:07;;;;;;;15.80;12.27;;;;;;;21.67;50.53;101358.34;5081736;28;20109;-65
2023/06/10 05:32:32;;;;;;;13.90;12.55;;;;;;;21.71;50.17;101360.22;5072773;28;20404;-65
2023/06/10 05:34:59;;;;;;;14.10;12.70;;;;;;;21.81;50.40;101360.00;5068870;28;20045;-65
2023/06/10 05:37:25;;;;;;;14.65;12.68;;;;;;;21.87;50.07;101351.41;5069351;28;20799;-65
2023/06/10 05:39:51;;;;;;;17.65;12.50;;;;;;;21.89;50.10;101364.09;5062445;28;20024;-66
2023/06/10 05:42:16;;;;;;;12.65;11.27;;;;;;;21.96;50.17;101353.16;5072186;28;20471;-63
2023/06/10 05:44:41;;;;;;;13.63;12.30;;;;;;;21.99;50.00;101357.34;5061317;28;20105;-63
2023/06/10 05:47:07;;;;;;;14.98;12.90;;;;;;;21.98;50.06;101358.50;5068837;28;20027;-64
2023/06/10 05:49:32;;;;;;;14.00;12.15;;;;;;;22.09;49.83;101361.94;5074627;28;20172;-63
2023/06/10 05:51:58;;;;;;;15.88;12.15;;;;;;;22.18;49.55;101358.06;5061246;28;20123;-63
2023/06/10 05:54:24;;;;;;;10.60;9.60;;;;;;;22.24;49.54;101356.78;5077903;28;20036;-63
2023/06/10 05:56:50;;;;;;;17.20;12.27;;;;;;;22.23;49.20;101368.41;5069585;28;20066;-64
2023/06/10 05:59:15;;;;;;;13.70;12.23;;;;;;;22.30;49.48;101358.31;5065570;28;20457;-63
2023/06/10 06:01:40;;;;;;;15.88;12.27;;;;;;;22.30;49.10;101363.97;5068632;28;20101;-64
2023/06/10 06:04:05;;;;;;;15.43;11.45;;;;;;;22.39;49.06;101363.22;5068315;28;20074;-63
2023/06/10 06:06:31;;;;;;;13.30;11.75;;;;;;;22.36;49.15;101367.53;5080678;28;20059;-64
2023/06/10 06:08:56;;;;;;;14.73;12.00;;;;;;;22.39;49.13;101366.88;5062484;28;20400;-64
2023/06/10 06:11:21;;;;;;;14.35;10.68;;;;;;;22.45;49.29;101359.94;5049197;28;20036;-65
2023/06/10 06:13:48;;;;;;;16.52;11.68;;;;;;;22.51;48.96;101361.47;5048989;28;20048;-64
2023/06/10 06:16:13;;;;;;;14.77;13.02;;;;;;;22.57;48.85;101369.84;5049291;28;20028;-64
2023/06/10 06:18:38;;;;;;;13.18;11.70;;;;;;;22.57;49.14;101364.19;5049773;28;20052;-64
2023/06/10 06:21:04;;;;;;;13.77;11.50;;;;;;;22.64;48.53;101365.41;5049068;28;20105;-64
2023/06/10 06:23:30;;;;;;;15.95;12.18;;;;;;;22.67;48.78;101366.75;5060981;28;20383;-64
2023/06/10 06:25:55;;;;;;;12.95;11.60;;;;;;;22.69;48.86;101364.44;5060823;28;20029;-65
2023/06/10 06:28:22;;;;;;;14.38;12.48;;;;;;;22.72;48.42;101363.81;5070715;28;20825;-64
2023/06/10 06:30:47;;;;;;;14.65;11.85;;;;;;;22.76;48.22;101362.81;5074570;28;20519;-65
2023/06/10 06:33:13;;;;;;;13.65;10.90;;;;;;;22.80;48.73;101368.69;5072851;28;20059;-64
2023/06/10 06:35:38;;;;;;;15.25;12.25;;;;;;;22.82;47.91;101365.50;5076376;28;20033;-65
2023/06/10 06:38:04;;;;;;;17.05;11.77;;;;;;;22.84;47.39;101372.53;5073798;28;20024;-65
2023/06/10 06:40:29;;;;;;;13.88;10.95;;;;;;;22.85;48.07;101374.19;5073553;28;20471;-64
2023/06/10 06:42:55;;;;;;;17.13;12.43;;;;;;;22.90;48.18;101376.88;5069111;28;20033;-65
2023/06/10 06:45:20;;;;;;;15.00;11.68;;;;;;;22.93;48.51;101381.94;5073149;28;20419;-65
2023/06/10 06:47:45;;;;;;;12.00;10.60;;;;;;;22.99;48.17;101382.63;5079768;28;20384;-65
2023/06/10 06:50:11;;;;;;;17.38;11.57;;;;;;;23.02;47.66;101381.97;5072741;28;20518;-64
2023/06/10 06:52:36;;;;;;;13.55;8.27;;;;;;;23.10;50.56;101381.19;5072886;28;20032;-63
2023/06/10 06:55:01;;;;;;;15.77;10.70;;;;;;;23.16;47.78;101385.56;5072772;28;20067;-65
2023/06/10 06:57:27;;;;;;;12.63;8.20;;;;;;;23.25;49.17;101379.94;5072449;28;20046;-65
2023/06/10 06:59:52;;;;;;;12.18;10.70;;;;;;;23.28;47.12;101379.28;5078101;28;20132;-65
2023/06/10 07:02:18;;;;;;;13.00;9.50;;;;;;;23.39;47.53;101394.00;5073438;28;20037;-63
2023/06/10 07:04:45;;;;;;;13.68;9.73;;;;;;;23.45;47.26;101392.69;5072194;28;20468;-63
2023/06/10 07:07:10;;;;;;;12.82;9.88;;;;;;;23.57;46.63;101389.22;5068059;28;20024;-64
2023/06/10 07:09:37;;;;;;;11.65;9.73;;;;;;;23.61;46.07;101388.22;5073134;28;20035;-64
2023/06/10 07:12:03;;;;;;;16.08;9.60;;;;;;;23.65;45.95;101386.41;5071384;28;20128;-64
2023/06/10 07:14:28;;;;;;;10.82;9.35;;;;;;;23.72;45.37;101391.63;5072438;28;20471;-64
2023/06/10 07:16:53;;;;;;;14.93;10.13;;;;;;;23.74;45.37;101395.81;5072748;28;20028;-65
2023/06/10 07:19:19;;;;;;;9.15;7.93;;;;;;;23.82;45.65;101399.84;5061983;28;20391;-63
2023/06/10 07:21:44;;;;;;;11.60;8.95;;;;;;;23.89;45.34;101400.16;5064881;28;20047;-66
2023/06/10 07:24:10;;;;;;;13.82;10.35;;;;;;;23.94;45.13;101399.22;5068309;28;20048;-65
2023/06/10 07:26:35;;;;;;;11.52;9.20;;;;;;;23.99;44.61;101393.38;5066458;28;20029;-64
2023/06/10 07:29:00;;;;;;;13.93;9.07;;;;;;;24.06;44.19;101402.22;5072671;28;20040;-65
2023/06/10 07:31:25;;;;;;;15.73;10.00;;;;;;;24.10;44.51;101399.56;5064815;28;20082;-65
2023/06/10 07:33:51;;;;;;;12.50;8.75;;;;;;;24.14;44.10;101394.91;5068526;28;20460;-65
2023/06/10 07:36:16;;;;;;;12.07;8.63;;;;;;;24.19;44.68;101394.72;5069987;28;20036;-66
2023/06/10 07:38:42;;;;;;;13.43;8.50;;;;;;;24.28;44.40;101403.22;5070436;28;20872;-62
2023/06/10 07:41:08;;;;;;;10.77;8.93;;;;;;;24.29;44.46;101399.22;5082321;28;20079;-60
2023/06/10 07:43:33;;;;;;;10.98;9.07;;;;;;;24.34;44.48;101399.91;5070105;28;20441;-63
2023/06/10 07:45:59;;;;;;;12.65;9.15;;;;;;;24.41;44.03;101397.44;5065935;28;20029;-65
2023/06/10 07:48:25;;;;;;;13.65;8.63;;;;;;;24.48;43.42;101396.91;5077999;28;20039;-63
2023/06/10 07:50:51;;;;;;;10.82;8.13;;;;;;;24.50;43.05;101403.13;5074904;28;20032;-58
2023/06/10 07:53:17;;;;;;;13.73;8.45;;;;;;;24.53;42.59;101402.44;5085584;28;20446;-58
2023/06/10 07:55:42;;;;;;;12.10;8.07;;;;;;;24.56;43.44;101407.44;5063438;28;20073;-59
2023/06/10 07:58:07;;;;;;;12.40;8.05;;;;;;;24.61;43.42;101395.94;5072344;28;20083;-58
2023/06/10 08:00:32;;;;;;;14.93;8.13;;;;;;;24.70;43.17;101399.59;5083956;28;20396;-62
2023/06/10 08:02:58;;;;;;;10.85;8.27;;;;;;;24.76;42.65;101393.72;5085033;28;20039;-61
2023/06/10 08:05:23;;;;;;;14.02;7.72;;;;;;;24.80;43.07;101400.41;5092189;28;20471;-62
2023/06/10 08:07:48;;;;;;;9.40;7.35;;;;;;;24.92;42.60;101394.88;5091518;28;20035;-62
2023/06/10 08:10:14;;;;;;;10.88;7.97;;;;;;;24.94;40.99;101390.53;5080562;28;20036;-62
2023/06/10 08:12:39;;;;;;;13.20;8.23;;;;;;;24.94;41.17;101398.22;5071501;28;20913;-62
2023/06/10 08:15:05;;;;;;;9.95;7.15;;;;;;;25.03;41.42;101401.84;5071165;28;20052;-63
2023/06/10 08:17:30;;;;;;;10.30;7.50;;;;;;;25.06;40.58;101395.50;5072245;28;20036;-62
2023/06/10 08:19:56;;;;;;;11.48;7.35;;;;;;;25.11;41.01;101391.69;5074883;28;20429;-63
2023/06/10 08:22:21;;;;;;;9.15;7.13;;;;;;;25.14;41.23;101397.50;5071366;28;20380;-63
2023/06/10 08:24:47;;;;;;;7.72;6.90;;;;;;;25.17;40.72;101394.00;5071686;28;20074;-63
2023/06/10 08:27:12;;;;;;;9.93;7.25;;;;;;;25.26;40.60;101395.97;5062110;28;20118;-63
2023/06/10 08:29:37;;;;;;;9.60;7.45;;;;;;;25.30;40.23;101394.94;5052703;28;20401;-63
2023/06/10 08:32:03;;;;;;;11.13;7.05;;;;;;;25.39;40.75;101392.09;5091672;28;20027;-63
2023/06/10 08:34:28;;;;;;;9.27;7.72;;;;;;;25.41;40.64;101399.09;5091375;28;20547;-63
2023/06/10 08:36:55;;;;;;;10.80;7.35;;;;;;;25.50;40.08;101399.03;5091171;28;20035;-63
2023/06/10 08:39:21;;;;;;;11.00;7.35;;;;;;;25.52;40.40;101405.25;5091594;28;20020;-63
2023/06/10 08:42:04;;;;;;;8.52;6.85;;;;;;;25.58;39.52;101403.84;5079017;28;20033;-63
2023/06/10 08:44:30;;;;;;;11.50;7.22;;;;;;;25.61;40.10;101405.19;5068195;28;20052;-63
2023/06/10 08:47:06;;;;;;;8.57;7.03;;;;;;;25.64;40.58;101405.34;5069515;28;20461;-63
2023/06/10 08:49:37;;;;;;;8.10;6.90;;;;;;;25.70;39.29;101404.00;5071959;28;20041;-63
2023/06/10 08:52:03;;;;;;;10.25;6.95;;;;;;;25.71;40.73;101408.50;5091238;28;20016;-63
2023/06/10 08:54:33;;;;;;;11.30;6.93;;;;;;;25.82;38.93;101397.59;5090792;28;20035;-63
2023/06/10 08:57:00;;;;;;;9.93;6.20;;;;;;;25.95;39.59;101401.34;5069878;28;20119;-63
2023/06/10 08:59:25;;;;;;;8.50;7.35;;;;;;;25.95;39.03;101404.19;5071235;28;20358;-63
2023/06/10 09:01:52;;;;;;;8.50;6.43;;;;;;;25.95;39.30;101401.34;5071134;28;20032;-63
2023/06/10 09:04:19;;;;;;;6.97;6.28;;;;;;;26.00;39.52;101388.94;5070700;28;20024;-63
2023/06/10 09:06:45;;;;;;;10.27;6.55;;;;;;;26.04;37.73;101395.59;5070848;28;20040;-63
2023/06/10 09:09:12;;;;;;;9.20;6.63;;;;;;;26.09;38.57;101393.38;5071046;28;20028;-62
2023/06/10 09:11:38;;;;;;;11.23;7.22;;;;;;;26.11;38.26;101393.88;5070307;28;20494;-63
2023/06/10 09:14:03;;;;;;;9.18;6.93;;;;;;;26.10;37.41;101392.22;5067396;28;20040;-62
2023/06/10 09:16:28;;;;;;;8.82;6.68;;;;;;;26.15;37.79;101394.84;5075529;28;20048;-62
2023/06/10 09:18:55;;;;;;;9.27;6.45;;;;;;;26.18;38.76;101391.31;5066924;28;20107;-63
2023/06/10 09:21:24;;;;;;;12.00;7.15;;;;;;;26.28;37.56;101392.91;5070484;28;20039;-63
2023/06/10 09:23:50;;;;;;;10.18;6.95;;;;;;;26.28;36.52;101392.91;5059642;28;20017;-64
2023/06/10 09:26:16;;;;;;;9.38;6.65;;;;;;;26.38;37.95;101394.53;5049713;28;20494;-63
2023/06/10 09:28:48;;;;;;;10.85;7.03;;;;;;;26.42;37.99;101390.63;5059054;28;20028;-63
2023/06/10 09:31:18;;;;;;;9.75;6.55;;;;;;;26.47;38.45;101388.78;5065031;28;20182;-63
2023/06/10 09:33:44;;;;;;;9.95;6.68;;;;;;;26.50;38.21;101391.75;5063872;28;20194;-63
2023/06/10 09:36:09;;;;;;;9.02;6.43;;;;;;;26.51;38.75;101392.59;5073066;28;20037;-64
2023/06/10 09:38:35;;;;;;;11.55;7.22;;;;;;;26.54;37.76;101389.88;5067360;28;20024;-64
2023/06/10 09:41:03;;;;;;;8.10;6.43;;;;;;;26.57;37.85;101394.88;5070418;28;20033;-63
2023/06/10 09:43:41;;;;;;;9.85;7.10;;;;;;;26.65;38.09;101390.28;5071020;28;20047;-64
2023/06/10 09:46:13;;;;;;;9.10;6.97;;;;;;;26.71;37.55;101390.91;5068896;28;20033;-64
2023/06/10 09:48:43;;;;;;;9.07;6.35;;;;;;;26.72;37.39;101384.84;5063015;28;20157;-64
2023/06/10 09:51:10;;;;;;;10.82;6.95;;;;;;;26.77;37.33;101378.13;5069618;28;20032;-63
2023/06/10 09:53:36;;;;;;;9.38;6.55;;;;;;;26.79;36.80;101385.09;5069788;28;20417;-64
2023/06/10 09:56:01;;;;;;;9.77;6.80;;;;;;;26.93;37.70;101381.97;5068619;28;20111;-63
2023/06/10 09:58:35;;;;;;;8.95;6.45;;;;;;;26.95;38.05;101373.88;5071576;28;20066;-64
2023/06/10 10:01:04;;;;;;;8.75;6.40;;;;;;;26.95;37.41;101373.06;5082766;28;20412;-63
2023/06/10 10:03:30;;;;;;;8.30;6.45;;;;;;;27.12;36.87;101373.72;5073590;28;20452;-63
2023/06/10 10:06:00;;;;;;;8.15;6.20;;;;;;;27.06;36.51;101377.13;5059891;28;20099;-63
2023/06/10 10:08:25;;;;;;;9.30;6.10;;;;;;;27.09;36.13;101377.25;5054171;28;20420;-64
2023/06/10 10:10:50;;;;;;;8.48;6.70;;;;;;;27.11;35.39;101372.03;5064846;28;20024;-64
2023/06/10 10:13:17;;;;;;;6.80;6.20;;;;;;;27.29;35.54;101377.56;5073731;28;20537;-65
2023/06/10 10:15:44;;;;;;;9.75;6.47;;;;;;;27.21;35.56;101364.25;5074179;28;20079;-65
2023/06/10 10:18:16;;;;;;;9.52;6.20;;;;;;;27.30;35.68;101359.25;5069794;28;20071;-64
2023/06/10 10:20:49;;;;;;;8.00;6.57;;;;;;;27.29;35.42;101369.00;5056012;28;20058;-64
2023/06/10 10:23:21;;;;;;;10.88;7.20;;;;;;;27.30;35.58;101368.63;5069085;28;20047;-65
2023/06/10 10:25:52;;;;;;;7.20;5.93;;;;;;;27.40;35.46;101364.50;5055086;28;20107;-64
2023/06/10 10:28:21;;;;;;;7.50;6.77;;;;;;;27.41;35.54;101369.84;5067912;28;20039;-64
2023/06/10 10:30:49;;;;;;;8.25;6.20;;;;;;;27.43;36.51;101366.63;5055749;28;20043;-64
2023/06/10 10:33:45;;;;;;;10.05;6.93;;;;;;;27.55;36.88;101362.94;5055320;28;20032;-64
2023/06/10 10:36:11;;;;;;;9.45;6.13;;;;;;;27.63;36.18;101362.84;5087293;28;20106;-64
2023/06/10 10:38:37;;;;;;;8.57;7.03;;;;;;;27.57;35.84;101364.25;5072010;28;20377;-64
2023/06/10 10:41:04;;;;;;;8.80;6.40;;;;;;;27.62;36.79;101364.00;5074468;28;20032;-64
2023/06/10 10:43:30;;;;;;;8.00;6.28;;;;;;;27.76;36.11;101362.88;5053633;28;20037;-64
2023/06/10 10:46:00;;;;;;;8.50;6.53;;;;;;;27.72;36.13;101359.03;5068258;28;20039;-64
2023/06/10 10:48:29;;;;;;;8.13;6.13;;;;;;;27.81;36.05;101354.88;5053907;28;20041;-64
2023/06/10 10:50:58;;;;;;;7.47;6.78;;;;;;;27.73;34.74;101355.81;5053857;28;20036;-65
2023/06/10 10:53:25;;;;;;;8.75;6.78;;;;;;;27.74;34.84;101362.38;5078613;28;20031;-64
2023/06/10 10:56:06;;;;;;;7.18;6.53;;;;;;;27.77;35.84;101356.78;5077797;28;20040;-65
2023/06/10 10:58:32;;;;;;;7.18;6.43;;;;;;;27.82;35.09;101362.25;5067195;28;20028;-64
2023/06/10 11:00:57;;;;;;;7.30;6.50;;;;;;;27.82;34.52;101355.72;5072965;28;20078;-64
2023/06/10 11:03:28;;;;;;;9.15;6.28;;;;;;;27.83;34.75;101348.84;5070011;28;20481;-65
2023/06/10 11:05:57;;;;;;;7.18;6.47;;;;;;;27.92;35.37;101349.53;5070032;28;20500;-64
2023/06/10 11:08:28;;;;;;;9.40;7.18;;;;;;;27.95;34.63;101354.50;5073274;28;20036;-64
2023/06/10 11:10:53;;;;;;;6.78;6.10;;;;;;;27.92;34.03;101352.38;5072114;28;20032;-64
2023/06/10 11:13:20;;;;;;;8.68;6.32;;;;;;;27.88;33.78;101355.13;5073558;28;20052;-65